Time;durP1;ratioP1;P1;durP2;ratioP2;P2;SDS_P1;SDS_P2;PMS_P1;PMS_P2;Temp;Humidity;BMP_temperature;BMP_pressure;BME280_temperature;BME280_humidity;BME280_pressure;Samples;Min_cycle;Max_cycle;Signal;HPM_P1;HPM_P2
2022/07/15 00:01:04;;;;;;;0.50;0.50;;;26.10;46.50;;;;;;5085677;28;20109;-60
2022/07/15 00:03:32;;;;;;;0.98;0.55;;;26.10;46.60;;;;;;5084444;28;20052;-61
2022/07/15 00:05:59;;;;;;;0.88;0.82;;;26.10;46.70;;;;;;5085312;28;20044;-61
2022/07/15 00:08:28;;;;;;;0.60;0.60;;;26.10;46.60;;;;;;5085277;28;20048;-61
2022/07/15 00:10:55;;;;;;;0.65;0.65;;;26.10;46.60;;;;;;5085045;28;20048;-61
2022/07/15 00:13:24;;;;;;;0.60;0.60;;;26.00;46.50;;;;;;5085174;28;20117;-61
2022/07/15 00:15:52;;;;;;;1.23;0.50;;;26.10;46.60;;;;;;5084160;28;20044;-61
2022/07/15 00:18:19;;;;;;;0.60;0.60;;;26.00;46.50;;;;;;5085209;28;20125;-62
2022/07/15 00:20:46;;;;;;;1.77;0.90;;;26.10;46.60;;;;;;5085656;28;20108;-61
2022/07/15 00:23:13;;;;;;;0.55;0.55;;;26.00;46.60;;;;;;5084871;28;20056;-61
2022/07/15 00:25:40;;;;;;;0.60;0.60;;;26.00;46.60;;;;;;5080482;28;20269;-61
2022/07/15 00:28:08;;;;;;;0.57;0.57;;;26.00;46.60;;;;;;5083335;28;20130;-60
2022/07/15 00:30:38;;;;;;;0.60;0.60;;;26.00;46.60;;;;;;5085083;28;20101;-61
2022/07/15 00:33:05;;;;;;;0.70;0.65;;;26.00;46.60;;;;;;5085034;28;20137;-61
2022/07/15 00:35:35;;;;;;;0.82;0.60;;;26.00;46.60;;;;;;5084597;28;20094;-61
2022/07/15 00:38:06;;;;;;;0.73;0.40;;;26.00;46.60;;;;;;5083718;28;20098;-61
2022/07/15 00:40:49;;;;;;;0.60;0.60;;;26.00;46.70;;;;;;5084994;28;20772;-61
2022/07/15 00:43:17;;;;;;;0.70;0.57;;;26.00;46.60;;;;;;5084685;28;20093;-61
2022/07/15 00:45:45;;;;;;;0.45;0.45;;;26.00;46.60;;;;;;5084813;28;20589;-61
2022/07/15 00:48:13;;;;;;;0.52;0.52;;;26.00;46.60;;;;;;5085203;28;20446;-61
2022/07/15 00:50:46;;;;;;;0.60;0.60;;;26.00;46.60;;;;;;5084505;28;20044;-61
2022/07/15 00:53:18;;;;;;;0.60;0.60;;;26.00;46.60;;;;;;5084558;28;20109;-61
2022/07/15 00:55:46;;;;;;;0.40;0.40;;;26.00;46.60;;;;;;5083239;28;20056;-61
2022/07/15 00:58:18;;;;;;;0.50;0.50;;;26.00;46.60;;;;;;5081604;28;20060;-61
2022/07/15 01:00:48;;;;;;;1.38;0.60;;;26.10;46.70;;;;;;5084868;28;20052;-61
2022/07/15 01:03:17;;;;;;;0.63;0.63;;;26.10;46.70;;;;;;5084647;28;20097;-61
2022/07/15 01:05:47;;;;;;;0.55;0.50;;;26.00;46.60;;;;;;5084884;28;20047;-61
2022/07/15 01:08:17;;;;;;;0.88;0.60;;;26.00;46.50;;;;;;5083384;28;20048;-61
2022/07/15 01:10:46;;;;;;;0.63;0.52;;;26.00;46.50;;;;;;5085234;28;20116;-60
2022/07/15 01:13:13;;;;;;;0.85;0.50;;;26.00;46.50;;;;;;5084726;28;20481;-61
2022/07/15 01:15:40;;;;;;;0.55;0.55;;;26.00;46.50;;;;;;5087824;28;20044;-61
2022/07/15 01:18:08;;;;;;;0.60;0.60;;;26.00;46.60;;;;;;5087738;28;20663;-60
2022/07/15 01:20:40;;;;;;;0.85;0.40;;;26.00;46.60;;;;;;5087205;28;20052;-61
2022/07/15 01:23:07;;;;;;;0.40;0.40;;;26.00;47.10;;;;;;5087727;28;20417;-61
2022/07/15 01:25:34;;;;;;;0.40;0.40;;;26.00;46.60;;;;;;5088340;28;20109;-61
2022/07/15 01:28:01;;;;;;;0.60;0.60;;;26.00;46.60;;;;;;5083759;28;20074;-61
2022/07/15 01:30:29;;;;;;;0.47;0.45;;;26.00;46.60;;;;;;5086911;28;20549;-60
2022/07/15 01:32:56;;;;;;;0.68;0.30;;;26.00;46.60;;;;;;5088182;28;20047;-61
2022/07/15 01:35:23;;;;;;;1.45;0.75;;;26.00;46.60;;;;;;5087713;28;20083;-61
2022/07/15 01:37:50;;;;;;;1.27;0.50;;;26.00;46.60;;;;;;5087851;28;20048;-61
2022/07/15 01:40:17;;;;;;;0.52;0.50;;;26.00;46.60;;;;;;5086397;28;20664;-61
2022/07/15 01:42:45;;;;;;;0.45;0.45;;;26.00;46.60;;;;;;5087947;28;20101;-61
2022/07/15 01:45:13;;;;;;;0.45;0.43;;;26.00;46.70;;;;;;5087579;28;20052;-61
2022/07/15 01:47:45;;;;;;;0.63;0.60;;;26.00;46.70;;;;;;5088072;28;20091;-61
2022/07/15 01:50:13;;;;;;;0.50;0.50;;;26.00;46.60;;;;;;5087756;28;20053;-60
2022/07/15 01:52:40;;;;;;;0.82;0.50;;;26.00;46.60;;;;;;5087272;28;20115;-61
2022/07/15 01:55:09;;;;;;;0.40;0.40;;;26.00;46.60;;;;;;5087293;28;20094;-60
2022/07/15 01:57:36;;;;;;;0.68;0.30;;;26.00;46.70;;;;;;5086320;28;20328;-61
2022/07/15 02:00:06;;;;;;;0.30;0.30;;;26.00;46.70;;;;;;5082900;28;20048;-61
2022/07/15 02:02:33;;;;;;;0.32;0.32;;;26.00;46.70;;;;;;5087552;28;20044;-60
2022/07/15 02:05:01;;;;;;;0.82;0.40;;;26.00;46.70;;;;;;5086850;28;20048;-61
2022/07/15 02:07:28;;;;;;;0.40;0.40;;;26.00;46.70;;;;;;5087230;28;20404;-61
2022/07/15 02:09:55;;;;;;;0.70;0.70;;;26.00;46.70;;;;;;5087458;28;20079;-61
2022/07/15 02:12:22;;;;;;;0.60;0.60;;;26.00;46.70;;;;;;5053113;28;20113;-61
2022/07/15 02:14:50;;;;;;;0.60;0.60;;;26.00;46.70;;;;;;5086987;28;20492;-61
2022/07/15 02:17:17;;;;;;;0.60;0.60;;;26.00;46.70;;;;;;5086670;28;20173;-61
2022/07/15 02:19:44;;;;;;;0.60;0.60;;;26.00;46.70;;;;;;5085670;28;20460;-61
2022/07/15 02:22:11;;;;;;;0.82;0.50;;;26.00;46.70;;;;;;5087081;28;20416;-61
2022/07/15 02:24:39;;;;;;;0.43;0.40;;;26.00;46.70;;;;;;5086594;28;20101;-61
2022/07/15 02:27:07;;;;;;;0.40;0.40;;;26.00;46.70;;;;;;5085182;28;20088;-61
2022/07/15 02:29:34;;;;;;;0.70;0.70;;;26.00;46.70;;;;;;5086627;28;20048;-61
2022/07/15 02:32:02;;;;;;;0.50;0.50;;;26.00;46.70;;;;;;5064442;28;20044;-60
2022/07/15 02:34:29;;;;;;;0.30;0.30;;;26.00;46.60;;;;;;5086121;28;20578;-60
2022/07/15 02:36:56;;;;;;;0.55;0.55;;;26.00;46.60;;;;;;5086746;28;20508;-60
2022/07/15 02:39:23;;;;;;;0.85;0.50;;;26.00;46.60;;;;;;5086269;28;20442;-60
2022/07/15 02:41:51;;;;;;;0.60;0.60;;;26.00;46.60;;;;;;5085243;28;20381;-60
2022/07/15 02:44:18;;;;;;;0.35;0.35;;;26.00;46.70;;;;;;5086837;28;20056;-60
2022/07/15 02:46:45;;;;;;;1.15;0.50;;;26.00;46.60;;;;;;5086709;28;20090;-59
2022/07/15 02:49:12;;;;;;;0.60;0.60;;;26.00;46.70;;;;;;5086445;28;20047;-60
2022/07/15 02:51:39;;;;;;;0.50;0.50;;;26.00;46.70;;;;;;5068247;28;20044;-60
2022/07/15 02:54:07;;;;;;;0.80;0.70;;;26.00;46.70;;;;;;5086228;28;20058;-60
2022/07/15 02:56:34;;;;;;;0.55;0.55;;;26.00;46.70;;;;;;5085912;28;20786;-60
2022/07/15 02:59:01;;;;;;;0.35;0.35;;;26.00;46.70;;;;;;5086158;28;20087;-60
2022/07/15 03:01:28;;;;;;;0.40;0.40;;;26.00;46.70;;;;;;5085118;28;20044;-60
2022/07/15 03:03:56;;;;;;;0.77;0.47;;;26.00;46.70;;;;;;5081711;28;20044;-60
2022/07/15 03:06:23;;;;;;;0.52;0.52;;;25.90;46.60;;;;;;5084680;28;20052;-60
2022/07/15 03:08:51;;;;;;;4.05;0.40;;;25.90;46.60;;;;;;5068018;28;20048;-60
2022/07/15 03:11:18;;;;;;;0.35;0.35;;;25.90;46.60;;;;;;5086273;28;20093;-60
2022/07/15 03:13:45;;;;;;;0.63;0.63;;;25.90;46.60;;;;;;5086513;28;20519;-60
2022/07/15 03:16:13;;;;;;;0.40;0.40;;;25.90;46.60;;;;;;5067860;28;20075;-60
2022/07/15 03:18:40;;;;;;;0.50;0.50;;;25.90;46.60;;;;;;5067797;28;20052;-60
2022/07/15 03:21:07;;;;;;;0.30;0.30;;;25.90;46.60;;;;;;5085747;28;20071;-60
2022/07/15 03:23:34;;;;;;;0.50;0.50;;;25.90;46.60;;;;;;5084984;28;20117;-60
2022/07/15 03:26:02;;;;;;;0.43;0.43;;;25.90;46.50;;;;;;5085861;28;20500;-59
2022/07/15 03:28:29;;;;;;;0.52;0.52;;;25.90;46.60;;;;;;5085287;28;20063;-60
2022/07/15 03:30:56;;;;;;;0.52;0.52;;;25.90;46.50;;;;;;5085525;28;20550;-60
2022/07/15 03:33:23;;;;;;;0.35;0.30;;;25.90;46.50;;;;;;5085736;28;20056;-60
2022/07/15 03:35:50;;;;;;;0.40;0.40;;;25.90;46.50;;;;;;5080801;28;20284;-61
2022/07/15 03:38:18;;;;;;;0.45;0.45;;;25.90;46.50;;;;;;5085388;28;20143;-60
2022/07/15 03:40:45;;;;;;;0.60;0.60;;;25.90;46.50;;;;;;5085495;28;20052;-60
2022/07/15 03:43:13;;;;;;;0.45;0.45;;;26.00;46.50;;;;;;5085158;28;20500;-60
2022/07/15 03:45:40;;;;;;;0.68;0.68;;;26.00;46.50;;;;;;5084938;28;20040;-60
2022/07/15 03:48:08;;;;;;;0.70;0.70;;;26.00;46.50;;;;;;5085028;28;20040;-60
2022/07/15 03:50:35;;;;;;;0.65;0.60;;;26.00;46.40;;;;;;5084260;28;20048;-60
2022/07/15 03:53:02;;;;;;;0.65;0.65;;;26.00;46.40;;;;;;5085274;28;20044;-60
2022/07/15 03:55:30;;;;;;;0.57;0.57;;;26.00;46.40;;;;;;5084994;28;20106;-60
2022/07/15 03:57:58;;;;;;;0.80;0.50;;;26.00;46.30;;;;;;5084937;28;20040;-61
2022/07/15 04:00:25;;;;;;;0.50;0.50;;;26.00;46.30;;;;;;5083859;28;20044;-60
2022/07/15 04:02:52;;;;;;;0.47;0.47;;;26.00;46.20;;;;;;5085583;28;20047;-60
2022/07/15 04:05:19;;;;;;;0.80;0.80;;;26.10;46.20;;;;;;5085951;28;20448;-60
2022/07/15 04:07:47;;;;;;;0.63;0.47;;;26.10;46.20;;;;;;5080915;28;20048;-59
2022/07/15 04:10:15;;;;;;;2.28;0.80;;;26.10;46.20;;;;;;5085439;28;20123;-60
2022/07/15 04:12:42;;;;;;;0.40;0.40;;;26.10;46.20;;;;;;5081932;28;20040;-59
2022/07/15 04:15:12;;;;;;;0.55;0.55;;;26.10;46.10;;;;;;5084469;28;20055;-60
2022/07/15 04:17:41;;;;;;;0.40;0.40;;;26.10;46.10;;;;;;5085024;28;20044;-60
2022/07/15 04:20:09;;;;;;;0.60;0.60;;;26.10;46.10;;;;;;5084356;28;20052;-60
2022/07/15 04:22:44;;;;;;;0.50;0.50;;;26.20;46.10;;;;;;5085055;28;20048;-60
2022/07/15 04:25:16;;;;;;;0.55;0.55;;;26.20;46.10;;;;;;5084716;28;20093;-60
2022/07/15 04:27:44;;;;;;;0.70;0.70;;;26.20;46.00;;;;;;5084623;28;20048;-59
2022/07/15 04:30:12;;;;;;;1.98;0.70;;;26.20;46.00;;;;;;5084923;28;20082;-60
2022/07/15 04:32:40;;;;;;;0.70;0.70;;;26.20;46.00;;;;;;5084885;28;20489;-59
2022/07/15 04:35:08;;;;;;;0.60;0.60;;;26.20;46.00;;;;;;5084817;28;20052;-59
2022/07/15 04:37:35;;;;;;;0.50;0.50;;;26.30;46.00;;;;;;5079823;28;20044;-60
2022/07/15 04:40:03;;;;;;;0.57;0.52;;;26.20;45.90;;;;;;5084603;28;20051;-60
2022/07/15 04:42:30;;;;;;;0.60;0.60;;;26.30;45.90;;;;;;5065847;28;20068;-60
2022/07/15 04:44:57;;;;;;;1.13;0.55;;;26.30;45.80;;;;;;5063913;28;20109;-59
2022/07/15 04:47:24;;;;;;;1.55;0.70;;;26.30;45.80;;;;;;5073686;28;20040;-60
2022/07/15 04:52:46;;;;;;;0.93;0.50;;;26.40;45.80;;;;;;5088146;28;20044;-60
2022/07/15 04:55:14;;;;;;;0.65;0.55;;;26.40;45.70;;;;;;5087371;28;20489;-60
2022/07/15 04:57:41;;;;;;;1.00;0.60;;;26.40;45.60;;;;;;5087266;28;20545;-60
2022/07/15 05:00:09;;;;;;;0.75;0.75;;;26.50;45.70;;;;;;5088358;28;20140;-60
2022/07/15 05:02:36;;;;;;;0.70;0.70;;;26.50;45.70;;;;;;5084593;28;20484;-60
2022/07/15 05:05:06;;;;;;;1.52;0.82;;;26.50;45.60;;;;;;5085112;28;20498;-60
2022/07/15 05:07:34;;;;;;;0.68;0.60;;;26.50;45.60;;;;;;5086770;28;20035;-59
2022/07/15 05:10:01;;;;;;;1.25;0.90;;;26.50;45.70;;;;;;5083732;28;20075;-59
2022/07/15 05:12:29;;;;;;;0.80;0.80;;;26.40;45.90;;;;;;5089292;28;20085;-59
2022/07/15 05:14:56;;;;;;;0.80;0.80;;;26.40;46.00;;;;;;5089496;28;20079;-59
2022/07/15 05:17:24;;;;;;;1.10;1.00;;;26.20;46.30;;;;;;5077533;28;20044;-59
2022/07/15 05:19:52;;;;;;;1.65;1.25;;;26.00;46.80;;;;;;5079351;28;20075;-68
2022/07/15 05:22:20;;;;;;;4.13;1.30;;;25.70;47.50;;;;;;5082895;28;20442;-69
2022/07/15 05:24:47;;;;;;;3.00;1.63;;;25.40;49.30;;;;;;5081249;28;20044;-69
2022/07/15 05:27:15;;;;;;;3.38;2.35;;;25.00;50.00;;;;;;5085897;28;20048;-71
2022/07/15 05:29:42;;;;;;;4.18;1.88;;;24.60;50.50;;;;;;5085000;28;20048;-69
2022/07/15 05:32:12;;;;;;;2.17;1.67;;;24.30;50.30;;;;;;5087244;28;20073;-70
2022/07/15 05:34:40;;;;;;;7.03;1.65;;;23.90;52.60;;;;;;5077908;28;20159;-72
2022/07/15 05:37:07;;;;;;;1.80;1.70;;;23.60;52.10;;;;;;5082474;28;20108;-69
2022/07/15 05:39:35;;;;;;;2.90;2.00;;;23.40;52.10;;;;;;5088377;28;20557;-69
2022/07/15 05:42:03;;;;;;;2.38;1.52;;;23.10;54.20;;;;;;5078875;28;20044;-69
2022/07/15 05:44:30;;;;;;;2.75;1.70;;;22.90;54.00;;;;;;5084002;28;20121;-71
2022/07/15 05:46:57;;;;;;;4.18;2.00;;;22.60;52.30;;;;;;5084473;28;20043;-69
2022/07/15 05:49:25;;;;;;;3.67;1.60;;;22.40;52.20;;;;;;5077712;28;20093;-70
2022/07/15 05:51:52;;;;;;;1.67;1.30;;;22.20;54.00;;;;;;5080419;28;20044;-70
2022/07/15 05:54:19;;;;;;;3.05;1.35;;;22.10;52.30;;;;;;5060887;28;20062;-69
2022/07/15 05:56:46;;;;;;;1.20;1.10;;;22.00;54.60;;;;;;5076208;28;20093;-76
2022/07/15 05:59:15;;;;;;;2.70;1.17;;;21.90;54.00;;;;;;5082176;28;20052;-72
2022/07/15 06:01:42;;;;;;;2.55;1.38;;;21.80;53.40;;;;;;5084808;28;20098;-70
2022/07/15 06:04:09;;;;;;;2.13;1.10;;;21.60;54.40;;;;;;5083213;28;20052;-72
2022/07/15 06:06:36;;;;;;;1.73;1.58;;;21.50;57.60;;;;;;5079863;28;20044;-68
2022/07/15 06:09:03;;;;;;;2.05;1.10;;;21.50;56.40;;;;;;5081098;28;20077;-62
2022/07/15 06:11:31;;;;;;;6.35;1.20;;;21.60;53.70;;;;;;5079519;28;20435;-62
2022/07/15 06:13:58;;;;;;;4.55;1.20;;;21.50;53.60;;;;;;5079824;28;20044;-61
2022/07/15 06:16:25;;;;;;;1.52;1.40;;;21.40;53.80;;;;;;5081524;28;20051;-61
2022/07/15 06:18:53;;;;;;;1.95;1.30;;;21.30;54.00;;;;;;5080574;28;20048;-60
2022/07/15 06:21:20;;;;;;;1.20;1.20;;;21.10;54.30;;;;;;5079456;28;20058;-61
2022/07/15 06:23:48;;;;;;;1.50;1.35;;;21.10;54.50;;;;;;5076108;28;20916;-60
2022/07/15 06:26:15;;;;;;;3.00;2.08;;;21.00;54.90;;;;;;5080832;28;20055;-59
2022/07/15 06:28:42;;;;;;;1.27;1.17;;;20.90;55.00;;;;;;5080583;28;20121;-60
2022/07/15 06:31:15;;;;;;;2.63;1.00;;;20.90;55.30;;;;;;5078680;28;20052;-61
2022/07/15 06:33:43;;;;;;;1.63;1.40;;;20.80;55.30;;;;;;5077328;28;20040;-60
2022/07/15 06:36:10;;;;;;;4.60;1.90;;;20.80;55.50;;;;;;5078681;28;20709;-60
2022/07/15 06:38:37;;;;;;;2.60;1.83;;;20.70;55.40;;;;;;5062287;28;20047;-61
2022/07/15 06:41:05;;;;;;;5.82;1.77;;;20.80;55.70;;;;;;5080494;28;20117;-60
2022/07/15 06:43:32;;;;;;;5.65;1.92;;;20.80;55.70;;;;;;5077158;28;20060;-60
2022/07/15 06:46:00;;;;;;;3.85;2.15;;;20.70;55.50;;;;;;5074450;28;20053;-60
2022/07/15 06:48:28;;;;;;;4.78;2.00;;;20.80;55.80;;;;;;5076938;28;20109;-60
2022/07/15 06:50:55;;;;;;;5.13;1.85;;;20.80;55.50;;;;;;5076154;28;20044;-60
2022/07/15 06:53:23;;;;;;;4.10;2.10;;;20.80;55.40;;;;;;5076606;28;20040;-60
2022/07/15 06:55:50;;;;;;;4.95;2.15;;;20.80;55.70;;;;;;5079526;28;20074;-60
2022/07/15 06:58:18;;;;;;;5.47;1.73;;;20.70;55.50;;;;;;5076366;28;20063;-58
2022/07/15 07:00:45;;;;;;;7.78;1.92;;;20.70;56.10;;;;;;5077598;28;20056;-59
2022/07/15 07:03:12;;;;;;;3.40;2.03;;;20.70;56.00;;;;;;5079197;28;20080;-59
2022/07/15 07:05:40;;;;;;;4.05;1.70;;;20.80;56.00;;;;;;5082255;28;20469;-60
2022/07/15 07:08:07;;;;;;;5.78;1.65;;;20.80;56.30;;;;;;5078403;28;20089;-61
2022/07/15 07:10:35;;;;;;;10.90;2.88;;;20.80;56.00;;;;;;5082824;28;20501;-59
2022/07/15 07:13:02;;;;;;;11.07;2.45;;;20.90;56.20;;;;;;5079570;28;20132;-59
2022/07/15 07:15:30;;;;;;;6.05;2.15;;;20.90;56.50;;;;;;5073373;28;20557;-58
2022/07/15 07:17:57;;;;;;;4.53;2.15;;;20.90;56.20;;;;;;5075275;28;20652;-60
2022/07/15 07:20:24;;;;;;;13.02;2.17;;;20.90;56.30;;;;;;5079725;28;20063;-59
2022/07/15 07:22:52;;;;;;;10.48;2.17;;;21.00;56.50;;;;;;5081002;28;20563;-60
2022/07/15 07:25:19;;;;;;;5.18;2.33;;;21.00;56.60;;;;;;5078954;28;20071;-61
2022/07/15 07:27:47;;;;;;;5.85;1.65;;;21.00;56.70;;;;;;5080081;28;20058;-61
2022/07/15 07:30:15;;;;;;;7.78;1.85;;;21.00;56.60;;;;;;5082002;28;20044;-61
2022/07/15 07:32:42;;;;;;;3.28;1.90;;;21.00;56.80;;;;;;5079222;28;20063;-61
2022/07/15 07:35:10;;;;;;;3.53;2.10;;;21.10;56.90;;;;;;5080332;28;20052;-62
2022/07/15 07:37:38;;;;;;;2.90;1.63;;;21.10;56.80;;;;;;5082074;28;20055;-61
2022/07/15 07:40:07;;;;;;;4.72;2.25;;;21.10;56.60;;;;;;5080258;28;20044;-60
2022/07/15 07:42:34;;;;;;;5.88;2.20;;;21.20;56.60;;;;;;5066952;28;20048;-60
2022/07/15 07:45:03;;;;;;;5.10;1.88;;;21.20;56.80;;;;;;5071637;28;20097;-60
2022/07/15 07:47:33;;;;;;;7.25;1.92;;;21.10;56.80;;;;;;5070813;28;20040;-60
2022/07/15 07:50:00;;;;;;;2.05;1.90;;;21.10;56.80;;;;;;5075024;28;20055;-62
2022/07/15 07:52:27;;;;;;;2.67;1.70;;;21.20;56.60;;;;;;5074830;28;20289;-63
2022/07/15 07:54:55;;;;;;;1.73;1.60;;;21.10;56.70;;;;;;5075331;28;20055;-61
2022/07/15 07:57:23;;;;;;;3.10;1.77;;;21.10;57.20;;;;;;5069406;28;20055;-62
2022/07/15 07:59:51;;;;;;;4.50;2.00;;;21.10;57.00;;;;;;5074130;28;20056;-62
2022/07/15 08:02:21;;;;;;;1.88;1.45;;;21.10;57.30;;;;;;5076793;28;20508;-62
2022/07/15 08:04:48;;;;;;;6.80;1.83;;;21.20;56.90;;;;;;5080453;28;20064;-61
2022/07/15 08:07:15;;;;;;;3.78;1.60;;;21.20;57.10;;;;;;5078692;28;20044;-62
2022/07/15 08:09:43;;;;;;;3.17;1.88;;;21.20;57.00;;;;;;5078283;28;20048;-62
2022/07/15 08:12:11;;;;;;;1.92;1.67;;;21.20;56.90;;;;;;5078067;28;20048;-64
2022/07/15 08:14:38;;;;;;;1.85;1.63;;;21.20;57.00;;;;;;5080109;28;20055;-63
2022/07/15 08:17:05;;;;;;;3.63;1.42;;;21.30;57.00;;;;;;5079074;28;20523;-62
2022/07/15 08:19:32;;;;;;;4.10;1.90;;;21.30;57.00;;;;;;5071795;28;20381;-63
2022/07/15 08:22:01;;;;;;;3.63;2.05;;;21.30;56.80;;;;;;5072386;28;20126;-63
2022/07/15 08:24:28;;;;;;;2.63;2.03;;;21.30;56.70;;;;;;5078630;28;20044;-63
2022/07/15 08:26:55;;;;;;;3.83;1.88;;;21.40;56.50;;;;;;5082380;28;20073;-63
2022/07/15 08:29:22;;;;;;;5.25;1.67;;;21.40;56.20;;;;;;5081948;28;20040;-63
2022/07/15 08:31:50;;;;;;;3.22;1.58;;;21.40;56.10;;;;;;5079775;28;20565;-64
2022/07/15 08:34:18;;;;;;;4.15;1.73;;;21.40;56.10;;;;;;5084917;28;20062;-64
2022/07/15 08:36:45;;;;;;;2.00;1.80;;;21.40;56.00;;;;;;5083158;28;20082;-63
2022/07/15 08:39:12;;;;;;;1.50;1.40;;;21.40;56.00;;;;;;5080135;28;20410;-63
2022/07/15 08:41:40;;;;;;;2.15;1.50;;;21.40;56.00;;;;;;5077867;28;20059;-63
2022/07/15 08:44:08;;;;;;;1.80;1.70;;;21.50;55.70;;;;;;5079042;28;20040;-63
2022/07/15 08:46:36;;;;;;;3.13;2.15;;;21.50;55.90;;;;;;5077152;28;20059;-61
2022/07/15 08:49:10;;;;;;;1.92;1.70;;;21.40;55.80;;;;;;5080919;28;20055;-61
2022/07/15 08:51:43;;;;;;;3.25;1.80;;;21.40;55.70;;;;;;5072457;28;20093;-61
2022/07/15 08:54:11;;;;;;;1.90;1.80;;;21.50;55.80;;;;;;5076495;28;20094;-61
2022/07/15 08:56:40;;;;;;;1.90;1.80;;;21.50;55.60;;;;;;5079484;28;20133;-61
2022/07/15 08:59:07;;;;;;;2.10;2.00;;;21.50;55.70;;;;;;5079392;28;20059;-62
2022/07/15 09:01:43;;;;;;;4.03;2.22;;;21.50;55.60;;;;;;5076572;28;20129;-62
2022/07/15 09:04:11;;;;;;;2.90;1.95;;;21.50;55.40;;;;;;5079164;28;20079;-62
2022/07/15 09:06:44;;;;;;;2.75;1.85;;;21.60;55.30;;;;;;5083442;28;20403;-61
2022/07/15 09:09:30;;;;;;;2.20;2.00;;;21.60;55.10;;;;;;5083437;28;20036;-61
2022/07/15 09:12:09;;;;;;;2.60;1.63;;;21.60;55.10;;;;;;5081524;28;20047;-60
2022/07/15 09:14:44;;;;;;;2.42;1.95;;;21.60;55.50;;;;;;5081868;28;20226;-61
2022/07/15 09:17:22;;;;;;;2.38;2.20;;;21.50;55.70;;;;;;5080003;28;20467;-60
2022/07/15 09:20:12;;;;;;;1.83;1.73;;;21.60;56.00;;;;;;5077331;28;20044;-61
2022/07/15 09:22:52;;;;;;;1.70;1.60;;;21.60;55.90;;;;;;5072154;28;20511;-59
2022/07/15 09:25:20;;;;;;;2.40;2.20;;;21.50;55.60;;;;;;5076434;28;20378;-60
2022/07/15 09:27:49;;;;;;;2.30;1.75;;;21.50;55.90;;;;;;5079311;28;20052;-60
2022/07/15 09:36:07;;;;;;;4.38;2.55;;;21.50;55.60;;;;;;5077165;28;20048;-61
2022/07/15 09:38:41;;;;;;;2.97;2.13;;;21.60;55.50;;;;;;5074312;28;20192;-59
2022/07/15 09:41:30;;;;;;;2.20;2.10;;;21.60;55.40;;;;;;5080367;28;20048;-60
2022/07/15 09:44:07;;;;;;;2.20;2.10;;;21.60;55.30;;;;;;5076128;28;20101;-59
2022/07/15 09:46:53;;;;;;;2.42;2.20;;;21.60;55.10;;;;;;5078311;28;20420;-60
2022/07/15 09:49:38;;;;;;;2.10;1.85;;;21.50;55.10;;;;;;5081840;28;20188;-61
2022/07/15 09:52:09;;;;;;;3.00;2.28;;;21.50;55.70;;;;;;5074560;28;20072;-59
2022/07/15 09:54:42;;;;;;;1.95;1.85;;;21.50;55.80;;;;;;5077963;28;20086;-59
2022/07/15 09:57:15;;;;;;;3.33;2.90;;;21.50;55.50;;;;;;5094103;28;20063;-59
2022/07/15 09:59:48;;;;;;;2.58;2.28;;;21.50;55.60;;;;;;5078797;28;20036;-57
2022/07/15 10:02:16;;;;;;;2.72;2.08;;;21.50;55.40;;;;;;5082753;28;20052;-59
2022/07/15 10:04:46;;;;;;;5.47;2.67;;;21.50;55.70;;;;;;5080177;28;20090;-59
2022/07/15 10:07:18;;;;;;;2.90;2.40;;;21.60;55.50;;;;;;5076918;28;20159;-60
2022/07/15 10:09:58;;;;;;;;;;;21.60;55.30;;;;;;5079338;28;20059;-60
2022/07/15 10:12:55;;;;;;;2.85;2.58;;;21.60;55.20;;;;;;5076010;28;20008;-60
2022/07/15 10:15:42;;;;;;;5.93;2.50;;;21.60;54.90;;;;;;5079897;28;20048;-59
2022/07/15 10:18:44;;;;;;;2.03;1.92;;;21.60;54.90;;;;;;5077830;28;20048;-60
2022/07/15 10:21:38;;;;;;;2.30;2.10;;;21.70;54.70;;;;;;5080708;28;20052;-60
2022/07/15 10:24:36;;;;;;;5.38;2.60;;;21.60;54.60;;;;;;5075179;28;21378;-60
2022/07/15 10:27:26;;;;;;;2.65;2.45;;;21.60;54.80;;;;;;5070884;28;20138;-60
2022/07/15 10:29:55;;;;;;;2.53;2.05;;;21.60;54.70;;;;;;5082388;28;20044;-60
2022/07/15 10:32:22;;;;;;;5.28;3.30;;;21.70;54.60;;;;;;5080536;28;20359;-60
2022/07/15 10:34:49;;;;;;;2.63;2.33;;;21.70;54.60;;;;;;5081856;28;20048;-60
2022/07/15 10:37:16;;;;;;;2.83;2.63;;;21.70;54.60;;;;;;5075130;28;20048;-60
2022/07/15 10:39:55;;;;;;;2.97;2.78;;;21.70;54.60;;;;;;5082887;28;20048;-60
2022/07/15 10:42:23;;;;;;;4.63;2.08;;;21.70;54.50;;;;;;5077772;28;20340;-61
2022/07/15 10:45:06;;;;;;;4.45;3.17;;;21.70;54.50;;;;;;5075392;28;20575;-60
2022/07/15 10:47:34;;;;;;;3.45;2.60;;;21.70;54.40;;;;;;5075782;28;20093;-59
2022/07/15 10:50:35;;;;;;;4.80;2.30;;;21.70;54.40;;;;;;5074108;28;20048;-61
2022/07/15 10:53:14;;;;;;;2.13;2.03;;;21.60;54.30;;;;;;5073720;28;20036;-60
2022/07/15 10:55:42;;;;;;;2.35;2.20;;;21.60;54.40;;;;;;5078363;28;20056;-60
2022/07/15 10:58:13;;;;;;;5.35;2.28;;;21.60;54.50;;;;;;5075890;28;20585;-60
2022/07/15 11:00:40;;;;;;;3.33;2.53;;;21.60;54.60;;;;;;5076708;28;20047;-60
2022/07/15 11:03:19;;;;;;;3.05;2.30;;;21.60;54.60;;;;;;5068517;28;20044;-60
2022/07/15 11:06:04;;;;;;;2.47;2.28;;;21.60;54.60;;;;;;5072706;28;20572;-60
2022/07/15 11:08:53;;;;;;;3.17;2.60;;;21.60;54.50;;;;;;5073341;28;20173;-61
2022/07/15 11:11:44;;;;;;;2.80;2.58;;;21.70;54.70;;;;;;5075319;28;20201;-59
2022/07/15 11:14:52;;;;;;;3.85;2.33;;;21.70;54.80;;;;;;5078093;28;20040;-60
2022/07/15 11:17:38;;;;;;;2.50;2.30;;;21.70;54.60;;;;;;5075797;28;20043;-60
2022/07/15 11:20:11;;;;;;;2.53;2.28;;;21.70;54.40;;;;;;5079772;28;20079;-60
2022/07/15 11:22:41;;;;;;;2.75;2.33;;;21.70;54.30;;;;;;5075501;28;20561;-60
2022/07/15 11:25:26;;;;;;;2.53;2.30;;;21.70;54.10;;;;;;5071086;28;20044;-61
2022/07/15 11:28:07;;;;;;;2.33;2.13;;;21.70;53.90;;;;;;5070368;28;20048;-59
2022/07/15 11:30:38;;;;;;;2.65;2.42;;;21.70;53.70;;;;;;5069304;28;20274;-59
2022/07/15 11:33:08;;;;;;;4.13;2.33;;;21.70;54.00;;;;;;5074566;28;20044;-60
2022/07/15 11:35:52;;;;;;;4.10;2.53;;;21.70;54.20;;;;;;5071361;28;20047;-59
2022/07/15 11:38:23;;;;;;;3.70;2.33;;;21.60;54.40;;;;;;5079096;28;20098;-61
2022/07/15 11:46:30;;;;;;;4.30;2.60;;;21.60;54.70;;;;;;5081414;28;20044;-60
2022/07/15 11:48:58;;;;;;;3.85;2.72;;;21.60;54.90;;;;;;5071296;28;20048;-58
2022/07/15 11:51:29;;;;;;;4.07;2.60;;;21.60;54.80;;;;;;5075320;28;20051;-59
2022/07/15 11:53:58;;;;;;;3.90;2.67;;;21.60;55.10;;;;;;5073786;28;20044;-58
2022/07/15 11:56:26;;;;;;;3.35;2.50;;;21.60;55.20;;;;;;5074595;28;20861;-59
2022/07/15 11:58:56;;;;;;;4.35;2.40;;;21.60;54.40;;;;;;5073493;28;20048;-59
2022/07/15 12:01:30;;;;;;;4.35;2.92;;;21.60;54.40;;;;;;5077779;28;20080;-59
2022/07/15 12:03:59;;;;;;;3.22;2.85;;;21.70;54.10;;;;;;5073473;28;20139;-58
2022/07/15 12:06:29;;;;;;;2.85;2.65;;;21.60;53.30;;;;;;5079614;28;20039;-61
2022/07/15 12:09:03;;;;;;;5.10;2.60;;;21.70;53.00;;;;;;5081025;28;20052;-62
2022/07/15 12:11:32;;;;;;;2.97;2.67;;;21.60;52.60;;;;;;5081479;28;20142;-60
2022/07/15 12:14:07;;;;;;;3.08;2.78;;;21.50;52.20;;;;;;5079136;28;20047;-60
2022/07/15 12:16:43;;;;;;;2.65;2.45;;;21.40;52.10;;;;;;5078059;28;20055;-60
2022/07/15 12:19:17;;;;;;;3.03;2.80;;;21.30;52.00;;;;;;5080860;28;20154;-59
2022/07/15 12:21:48;;;;;;;3.92;2.60;;;21.20;51.90;;;;;;5077810;28;20127;-59
2022/07/15 12:24:17;;;;;;;4.93;2.42;;;21.10;51.90;;;;;;5083006;28;20048;-59
2022/07/15 12:26:58;;;;;;;3.05;2.85;;;21.00;51.80;;;;;;5073085;28;20597;-59
2022/07/15 12:29:29;;;;;;;3.72;2.25;;;20.90;51.70;;;;;;5079563;28;20327;-58
2022/07/15 12:32:16;;;;;;;2.70;2.50;;;20.80;52.00;;;;;;5068334;28;20135;-61
2022/07/15 12:34:52;;;;;;;2.97;2.55;;;20.70;52.30;;;;;;5078121;28;20455;-59
2022/07/15 12:37:24;;;;;;;2.67;2.47;;;20.70;52.80;;;;;;5077982;28;20097;-60
2022/07/15 12:40:07;;;;;;;4.00;3.30;;;20.80;53.00;;;;;;5083429;28;20097;-59
2022/07/15 12:42:49;;;;;;;2.50;2.30;;;20.80;52.80;;;;;;5080949;28;20051;-61
2022/07/15 12:45:20;;;;;;;2.50;2.30;;;20.70;52.90;;;;;;5071089;28;20052;-63
2022/07/15 12:48:07;;;;;;;3.15;2.47;;;20.70;53.20;;;;;;5082725;28;20047;-61
2022/07/15 12:50:57;;;;;;;3.80;2.58;;;20.70;53.00;;;;;;5081798;28;20075;-62
2022/07/15 12:53:29;;;;;;;3.03;2.80;;;20.70;53.10;;;;;;5061737;28;20102;-62
2022/07/15 12:56:01;;;;;;;3.50;2.80;;;20.70;53.50;;;;;;5073023;28;20056;-62
2022/07/15 12:58:33;;;;;;;3.53;3.22;;;20.60;53.80;;;;;;5076738;28;20399;-62
2022/07/15 13:01:09;;;;;;;3.53;3.25;;;20.70;54.30;;;;;;5070108;28;20047;-62
2022/07/15 13:03:37;;;;;;;3.20;2.88;;;20.70;54.30;;;;;;5078812;28;20566;-63
2022/07/15 13:06:05;;;;;;;5.00;3.25;;;20.70;54.10;;;;;;5064590;28;20076;-62
2022/07/15 13:08:34;;;;;;;2.88;2.63;;;20.70;53.90;;;;;;5080129;28;20056;-62
2022/07/15 13:11:04;;;;;;;2.63;2.42;;;20.60;54.00;;;;;;5070189;28;20110;-62
2022/07/15 13:13:34;;;;;;;4.67;3.10;;;20.70;54.40;;;;;;5086694;28;20048;-60
2022/07/15 13:16:05;;;;;;;4.38;2.70;;;20.70;54.30;;;;;;5081048;28;20387;-59
2022/07/15 13:18:34;;;;;;;4.50;2.38;;;20.70;54.30;;;;;;5086453;28;20055;-60